sensor_id;sensor_type;location;lat;lon;timestamp;pressure;altitude;pressure_sealevel;temperature;humidity
18987;BME280;9627;59.236;18.142;2023-01-26T00:02:10;100959.63;;;3.61;100.00
18987;BME280;9627;59.236;18.142;2023-01-26T00:04:37;100948.16;;;3.62;100.00
18987;BME280;9627;59.236;18.142;2023-01-26T00:07:04;100943.75;;;3.63;100.00
18987;BME280;9627;59.236;18.142;2023-01-26T00:09:31;100946.38;;;3.63;100.00
18987;BME280;9627;59.236;18.142;2023-01-26T00:12:00;100942.78;;;3.64;100.00
18987;BME280;9627;59.236;18.142;2023-01-26T00:20:32;100944.72;;;3.62;100.00
18987;BME280;9627;59.236;18.142;2023-01-26T00:22:59;100939.47;;;3.62;100.00
18987;BME280;9627;59.236;18.142;2023-01-26T00:25:26;100937.66;;;3.62;100.00
18987;BME280;9627;59.236;18.142;2023-01-26T00:27:55;100939.72;;;3.59;100.00
18987;BME280;9627;59.236;18.142;2023-01-26T00:30:22;100935.03;;;3.62;100.00
18987;BME280;9627;59.236;18.142;2023-01-26T00:32:49;100945.94;;;3.58;100.00
18987;BME280;9627;59.236;18.142;2023-01-26T00:35:16;100933.66;;;3.58;100.00
18987;BME280;9627;59.236;18.142;2023-01-26T00:37:43;100940.56;;;3.59;100.00
18987;BME280;9627;59.236;18.142;2023-01-26T00:40:10;100937.53;;;3.64;100.00
18987;BME280;9627;59.236;18.142;2023-01-26T00:42:37;100939.47;;;3.62;100.00
18987;BME280;9627;59.236;18.142;2023-01-26T00:45:07;100942.34;;;3.59;100.00
18987;BME280;9627;59.236;18.142;2023-01-26T00:47:34;100937.25;;;3.57;100.00
18987;BME280;9627;59.236;18.142;2023-01-26T00:53:04;100937.53;;;3.64;100.00
18987;BME280;9627;59.236;18.142;2023-01-26T00:55:31;100944.72;;;3.62;100.00
18987;BME280;9627;59.236;18.142;2023-01-26T00:57:58;100950.91;;;3.61;100.00
18987;BME280;9627;59.236;18.142;2023-01-26T01:00:26;100951.22;;;3.67;100.00
18987;BME280;9627;59.236;18.142;2023-01-26T01:02:53;100943.75;;;3.63;100.00
18987;BME280;9627;59.236;18.142;2023-01-26T01:05:20;100941.53;;;3.68;100.00
18987;BME280;9627;59.236;18.142;2023-01-26T01:07:48;100952.19;;;3.66;100.00
18987;BME280;9627;59.236;18.142;2023-01-26T01:10:15;100947.06;;;3.65;100.00
18987;BME280;9627;59.236;18.142;2023-01-26T01:12:42;100948.03;;;3.64;100.00
18987;BME280;9627;59.236;18.142;2023-01-26T01:15:09;100948.59;;;3.67;100.00
18987;BME280;9627;59.236;18.142;2023-01-26T01:17:38;100941.94;;;3.63;100.00
18987;BME280;9627;59.236;18.142;2023-01-26T01:20:06;100939.03;;;3.66;100.00
18987;BME280;9627;59.236;18.142;2023-01-26T01:22:35;100945.13;;;3.67;100.00
18987;BME280;9627;59.236;18.142;2023-01-26T01:25:02;100941.13;;;3.63;100.00
18987;BME280;9627;59.236;18.142;2023-01-26T01:27:29;100953.84;;;3.67;100.00
18987;BME280;9627;59.236;18.142;2023-01-26T01:29:56;100954.09;;;3.64;100.00
18987;BME280;9627;59.236;18.142;2023-01-26T01:32:23;100959.91;;;3.68;100.00
18987;BME280;9627;59.236;18.142;2023-01-26T01:34:52;100955.63;;;3.67;100.00
18987;BME280;9627;59.236;18.142;2023-01-26T01:37:19;100952.59;;;3.62;100.00
18987;BME280;9627;59.236;18.142;2023-01-26T01:39:45;100955.22;;;3.62;100.00
18987;BME280;9627;59.236;18.142;2023-01-26T01:42:14;100955.09;;;3.63;100.00
18987;BME280;9627;59.236;18.142;2023-01-26T01:44:41;100969.16;;;3.62;100.00
18987;BME280;9627;59.236;18.142;2023-01-26T01:47:09;100969.84;;;3.64;100.00
18987;BME280;9627;59.236;18.142;2023-01-26T01:49:39;100969.59;;;3.67;100.00
18987;BME280;9627;59.236;18.142;2023-01-26T01:52:10;100969.03;;;3.64;100.00
18987;BME280;9627;59.236;18.142;2023-01-26T01:54:38;100964.50;;;3.66;100.00
18987;BME280;9627;59.236;18.142;2023-01-26T01:57:07;100968.75;;;3.67;100.00
18987;BME280;9627;59.236;18.142;2023-01-26T01:59:39;100963.38;;;3.68;100.00
18987;BME280;9627;59.236;18.142;2023-01-26T02:02:07;100968.63;;;3.68;100.00
18987;BME280;9627;59.236;18.142;2023-01-26T02:04:35;100967.13;;;3.66;100.00
18987;BME280;9627;59.236;18.142;2023-01-26T02:07:02;100966.13;;;3.67;100.00
18987;BME280;9627;59.236;18.142;2023-01-26T02:09:33;100966.13;;;3.67;100.00
18987;BME280;9627;59.236;18.142;2023-01-26T02:12:18;100960.88;;;3.67;100.00
18987;BME280;9627;59.236;18.142;2023-01-26T02:14:46;100959.81;;;3.69;100.00
18987;BME280;9627;59.236;18.142;2023-01-26T02:17:14;100961.03;;;3.65;100.00
18987;BME280;9627;59.236;18.142;2023-01-26T02:19:43;100966.00;;;3.68;100.00
18987;BME280;9627;59.236;18.142;2023-01-26T02:22:14;100969.59;;;3.67;100.00
18987;BME280;9627;59.236;18.142;2023-01-26T02:24:44;100967.13;;;3.66;100.00
18987;BME280;9627;59.236;18.142;2023-01-26T02:27:13;100960.75;;;3.68;100.00
18987;BME280;9627;59.236;18.142;2023-01-26T02:32:43;100956.34;;;3.69;100.00
18987;BME280;9627;59.236;18.142;2023-01-26T02:35:10;100943.22;;;3.69;100.00
18987;BME280;9627;59.236;18.142;2023-01-26T02:37:37;100949.84;;;3.73;100.00
18987;BME280;9627;59.236;18.142;2023-01-26T02:40:04;100958.56;;;3.73;100.00
18987;BME280;9627;59.236;18.142;2023-01-26T02:42:34;100967.53;;;3.71;100.00
18987;BME280;9627;59.236;18.142;2023-01-26T02:45:03;100965.06;;;3.69;100.00
18987;BME280;9627;59.236;18.142;2023-01-26T02:47:30;100969.31;;;3.70;100.00
18987;BME280;9627;59.236;18.142;2023-01-26T02:49:57;100952.34;;;3.74;100.00
18987;BME280;9627;59.236;18.142;2023-01-26T02:52:25;100966.16;;;3.76;100.00
18987;BME280;9627;59.236;18.142;2023-01-26T02:54:52;100957.44;;;3.76;100.00
18987;BME280;9627;59.236;18.142;2023-01-26T02:57:37;100956.91;;;3.72;100.00
18987;BME280;9627;59.236;18.142;2023-01-26T03:00:05;100958.44;;;3.75;100.00
18987;BME280;9627;59.236;18.142;2023-01-26T03:02:33;100961.91;;;3.75;100.00
18987;BME280;9627;59.236;18.142;2023-01-26T03:05:00;100965.19;;;3.77;100.00
18987;BME280;9627;59.236;18.142;2023-01-26T03:07:28;100965.06;;;3.79;100.00
18987;BME280;9627;59.236;18.142;2023-01-26T03:09:55;100965.31;;;3.76;100.00
18987;BME280;9627;59.236;18.142;2023-01-26T03:12:23;100965.19;;;3.77;100.00
18987;BME280;9627;59.236;18.142;2023-01-26T03:14:52;100958.00;;;3.79;100.00
18987;BME280;9627;59.236;18.142;2023-01-26T03:17:32;100965.63;;;3.83;100.00
18987;BME280;9627;59.236;18.142;2023-01-26T03:19:59;100968.25;;;3.83;100.00
18987;BME280;9627;59.236;18.142;2023-01-26T03:22:43;100965.50;;;3.84;100.00
18987;BME280;9627;59.236;18.142;2023-01-26T03:25:33;100976.00;;;3.84;100.00
18987;BME280;9627;59.236;18.142;2023-01-26T03:28:17;100983.88;;;3.84;100.00
18987;BME280;9627;59.236;18.142;2023-01-26T03:30:48;100985.09;;;3.80;100.00
18987;BME280;9627;59.236;18.142;2023-01-26T03:33:15;100982.34;;;3.82;100.00
18987;BME280;9627;59.236;18.142;2023-01-26T03:35:42;100978.91;;;3.81;100.00
18987;BME280;9627;59.236;18.142;2023-01-26T03:38:09;100982.34;;;3.82;100.00
18987;BME280;9627;59.236;18.142;2023-01-26T03:40:36;100980.53;;;3.82;100.00
18987;BME280;9627;59.236;18.142;2023-01-26T03:43:21;100981.09;;;3.86;100.00
18987;BME280;9627;59.236;18.142;2023-01-26T03:46:07;100989.81;;;3.86;100.00
18987;BME280;9627;59.236;18.142;2023-01-26T03:48:51;100979.31;;;3.86;100.00
18987;BME280;9627;59.236;18.142;2023-01-26T03:51:35;100989.97;;;3.85;100.00
18987;BME280;9627;59.236;18.142;2023-01-26T03:54:18;100977.22;;;3.80;100.00
18987;BME280;9627;59.236;18.142;2023-01-26T03:57:02;100985.81;;;3.82;100.00
18987;BME280;9627;59.236;18.142;2023-01-26T03:59:31;100981.25;;;3.84;100.00
18987;BME280;9627;59.236;18.142;2023-01-26T04:02:07;100979.47;;;3.85;100.00
18987;BME280;9627;59.236;18.142;2023-01-26T04:04:51;100980.41;;;3.84;100.00
18987;BME280;9627;59.236;18.142;2023-01-26T04:07:36;100983.03;;;3.84;100.00
18987;BME280;9627;59.236;18.142;2023-01-26T04:10:20;100981.09;;;3.86;100.00
18987;BME280;9627;59.236;18.142;2023-01-26T04:12:47;100984.84;;;3.83;100.00
18987;BME280;9627;59.236;18.142;2023-01-26T04:15:31;100986.50;;;3.84;100.00
18987;BME280;9627;59.236;18.142;2023-01-26T04:18:17;100996.06;;;3.85;100.00
18987;BME280;9627;59.236;18.142;2023-01-26T04:21:01;100998.53;;;3.87;100.00
18987;BME280;9627;59.236;18.142;2023-01-26T04:23:45;101000.31;;;3.86;100.00
18987;BME280;9627;59.236;18.142;2023-01-26T04:26:12;100992.59;;;3.85;100.00
18987;BME280;9627;59.236;18.142;2023-01-26T04:28:39;100997.16;;;3.83;100.00
18987;BME280;9627;59.236;18.142;2023-01-26T04:31:06;100997.16;;;3.83;100.00
18987;BME280;9627;59.236;18.142;2023-01-26T04:33:34;100984.56;;;3.86;100.00
18987;BME280;9627;59.236;18.142;2023-01-26T04:36:02;100992.59;;;3.85;100.00
18987;BME280;9627;59.236;18.142;2023-01-26T04:38:29;101000.63;;;3.83;100.00
18987;BME280;9627;59.236;18.142;2023-01-26T04:40:56;101001.16;;;3.87;100.00
18987;BME280;9627;59.236;18.142;2023-01-26T04:43:23;100998.69;;;3.85;100.00
18987;BME280;9627;59.236;18.142;2023-01-26T04:45:57;101001.16;;;3.87;100.00
18987;BME280;9627;59.236;18.142;2023-01-26T04:48:24;100996.88;;;3.86;100.00
18987;BME280;9627;59.236;18.142;2023-01-26T04:50:57;101005.88;;;3.83;100.00
18987;BME280;9627;59.236;18.142;2023-01-26T04:53:25;101001.56;;;3.82;100.00
18987;BME280;9627;59.236;18.142;2023-01-26T04:55:53;101010.00;;;3.86;100.00
18987;BME280;9627;59.236;18.142;2023-01-26T04:58:20;101009.28;;;3.84;100.00
18987;BME280;9627;59.236;18.142;2023-01-26T05:00:49;101007.66;;;3.83;100.00
18987;BME280;9627;59.236;18.142;2023-01-26T05:03:16;101006.94;;;3.81;100.00
18987;BME280;9627;59.236;18.142;2023-01-26T05:05:43;101016.94;;;3.87;100.00
18987;BME280;9627;59.236;18.142;2023-01-26T05:08:12;101017.63;;;3.89;100.00
18987;BME280;9627;59.236;18.142;2023-01-26T05:10:39;101021.06;;;3.89;100.00
18987;BME280;9627;59.236;18.142;2023-01-26T05:13:06;101021.19;;;3.88;100.00
18987;BME280;9627;59.236;18.142;2023-01-26T05:15:33;101021.06;;;3.89;100.00
18987;BME280;9627;59.236;18.142;2023-01-26T05:18:00;101022.31;;;3.85;100.00
18987;BME280;9627;59.236;18.142;2023-01-26T05:20:27;101028.25;;;3.87;100.00
18987;BME280;9627;59.236;18.142;2023-01-26T05:22:54;101029.22;;;3.86;100.00
18987;BME280;9627;59.236;18.142;2023-01-26T05:25:23;101034.88;;;3.91;100.00
18987;BME280;9627;59.236;18.142;2023-01-26T05:27:51;101019.28;;;3.90;100.00
18987;BME280;9627;59.236;18.142;2023-01-26T05:30:18;101030.75;;;3.89;100.00
18987;BME280;9627;59.236;18.142;2023-01-26T05:32:45;101035.44;;;3.85;100.00
18987;BME280;9627;59.236;18.142;2023-01-26T05:35:12;101046.75;;;3.86;100.00
18987;BME280;9627;59.236;18.142;2023-01-26T05:37:39;101043.44;;;3.84;100.00
18987;BME280;9627;59.236;18.142;2023-01-26T05:40:10;101051.22;;;3.85;100.00
18987;BME280;9627;59.236;18.142;2023-01-26T05:42:38;101061.72;;;3.85;100.00
18987;BME280;9627;59.236;18.142;2023-01-26T05:45:05;101064.19;;;3.87;100.00
18987;BME280;9627;59.236;18.142;2023-01-26T05:47:33;101057.97;;;3.88;100.00
18987;BME280;9627;59.236;18.142;2023-01-26T05:49:59;101072.06;;;3.87;100.00
18987;BME280;9627;59.236;18.142;2023-01-26T05:52:26;101076.50;;;3.86;100.00
18987;BME280;9627;59.236;18.142;2023-01-26T05:54:53;101079.97;;;3.87;100.00
18987;BME280;9627;59.236;18.142;2023-01-26T05:57:20;101078.84;;;3.89;100.00
18987;BME280;9627;59.236;18.142;2023-01-26T05:59:49;101084.09;;;3.89;100.00
18987;BME280;9627;59.236;18.142;2023-01-26T06:02:17;101088.13;;;3.93;100.00
18987;BME280;9627;59.236;18.142;2023-01-26T06:04:44;101098.91;;;3.90;100.00
18987;BME280;9627;59.236;18.142;2023-01-26T06:07:11;101099.03;;;3.89;100.00
18987;BME280;9627;59.236;18.142;2023-01-26T06:09:38;101106.22;;;3.87;100.00
18987;BME280;9627;59.236;18.142;2023-01-26T06:12:09;101108.44;;;3.91;100.00
18987;BME280;9627;59.236;18.142;2023-01-26T06:14:38;101107.47;;;3.92;100.00
18987;BME280;9627;59.236;18.142;2023-01-26T06:17:06;101111.91;;;3.92;100.00
18987;BME280;9627;59.236;18.142;2023-01-26T06:19:33;101113.69;;;3.91;100.00
18987;BME280;9627;59.236;18.142;2023-01-26T06:22:01;101118.13;;;3.91;100.00
18987;BME280;9627;59.236;18.142;2023-01-26T06:24:28;101126.13;;;3.89;100.00
18987;BME280;9627;59.236;18.142;2023-01-26T06:26:55;101124.75;;;3.85;100.00
18987;BME280;9627;59.236;18.142;2023-01-26T06:29:23;101132.47;;;3.87;100.00
18987;BME280;9627;59.236;18.142;2023-01-26T06:31:50;101136.19;;;3.84;100.00
18987;BME280;9627;59.236;18.142;2023-01-26T06:34:19;101138.97;;;3.83;100.00
18987;BME280;9627;59.236;18.142;2023-01-26T06:36:46;101141.31;;;3.86;100.00
18987;BME280;9627;59.236;18.142;2023-01-26T06:39:13;101144.44;;;3.79;100.00
18987;BME280;9627;59.236;18.142;2023-01-26T06:41:42;101142.53;;;3.82;100.00
18987;BME280;9627;59.236;18.142;2023-01-26T06:44:09;101142.53;;;3.82;100.00
18987;BME280;9627;59.236;18.142;2023-01-26T06:46:36;101149.47;;;3.83;100.00
18987;BME280;9627;59.236;18.142;2023-01-26T06:49:04;101150.16;;;3.85;100.00
18987;BME280;9627;59.236;18.142;2023-01-26T06:51:41;101158.88;;;3.85;100.00
18987;BME280;9627;59.236;18.142;2023-01-26T06:54:10;101161.63;;;3.84;100.00
18987;BME280;9627;59.236;18.142;2023-01-26T06:56:38;101168.56;;;3.85;100.00
18987;BME280;9627;59.236;18.142;2023-01-26T06:59:05;101172.69;;;3.87;100.00
18987;BME280;9627;59.236;18.142;2023-01-26T07:01:35;101183.19;;;3.87;100.00
18987;BME280;9627;59.236;18.142;2023-01-26T07:04:03;101185.97;;;3.86;100.00
18987;BME280;9627;59.236;18.142;2023-01-26T07:06:30;101191.22;;;3.86;100.00
18987;BME280;9627;59.236;18.142;2023-01-26T07:08:59;101197.44;;;3.85;100.00
18987;BME280;9627;59.236;18.142;2023-01-26T07:11:26;101198.38;;;3.84;100.00
18987;BME280;9627;59.236;18.142;2023-01-26T07:13:54;101197.44;;;3.85;100.00
18987;BME280;9627;59.236;18.142;2023-01-26T07:16:21;101206.72;;;3.89;100.00
18987;BME280;9627;59.236;18.142;2023-01-26T07:18:48;101202.41;;;3.88;100.00
18987;BME280;9627;59.236;18.142;2023-01-26T07:21:16;101197.16;;;3.88;100.00
18987;BME280;9627;59.236;18.142;2023-01-26T07:23:43;101206.72;;;3.89;100.00
18987;BME280;9627;59.236;18.142;2023-01-26T07:26:12;101209.34;;;3.89;100.00
18987;BME280;9627;59.236;18.142;2023-01-26T07:28:39;101212.78;;;3.89;100.00
18987;BME280;9627;59.236;18.142;2023-01-26T07:31:06;101225.91;;;3.89;100.00
18987;BME280;9627;59.236;18.142;2023-01-26T07:33:34;101234.78;;;3.88;100.00
18987;BME280;9627;59.236;18.142;2023-01-26T07:36:01;101226.19;;;3.86;100.00
18987;BME280;9627;59.236;18.142;2023-01-26T07:38:28;101239.47;;;3.85;100.00
18987;BME280;9627;59.236;18.142;2023-01-26T07:40:55;101234.22;;;3.85;100.00
18987;BME280;9627;59.236;18.142;2023-01-26T07:43:24;101236.13;;;3.83;100.00
18987;BME280;9627;59.236;18.142;2023-01-26T07:45:51;101243.75;;;3.86;100.00
18987;BME280;9627;59.236;18.142;2023-01-26T07:48:19;101242.22;;;3.83;100.00
18987;BME280;9627;59.236;18.142;2023-01-26T07:50:45;101247.06;;;3.88;100.00
18987;BME280;9627;59.236;18.142;2023-01-26T07:53:12;101242.09;;;3.85;100.00
18987;BME280;9627;59.236;18.142;2023-01-26T07:55:43;101248.63;;;3.90;100.00
18987;BME280;9627;59.236;18.142;2023-01-26T07:58:10;101248.47;;;3.92;100.00
18987;BME280;9627;59.236;18.142;2023-01-26T08:00:40;101248.63;;;3.90;100.00
18987;BME280;9627;59.236;18.142;2023-01-26T08:03:07;101247.19;;;3.86;100.00
18987;BME280;9627;59.236;18.142;2023-01-26T08:05:34;101253.44;;;3.85;100.00
18987;BME280;9627;59.236;18.142;2023-01-26T08:08:02;101257.72;;;3.86;100.00
18987;BME280;9627;59.236;18.142;2023-01-26T08:10:30;101263.22;;;3.83;100.00
18987;BME280;9627;59.236;18.142;2023-01-26T08:12:57;101281.00;;;3.79;100.00
18987;BME280;9627;59.236;18.142;2023-01-26T08:15:24;101272.19;;;3.81;100.00
18987;BME280;9627;59.236;18.142;2023-01-26T08:17:53;101283.63;;;3.79;100.00
18987;BME280;9627;59.236;18.142;2023-01-26T08:20:20;101290.81;;;3.77;100.00
18987;BME280;9627;59.236;18.142;2023-01-26T08:22:47;101286.66;;;3.75;100.00
18987;BME280;9627;59.236;18.142;2023-01-26T08:25:14;101297.75;;;3.78;100.00
18987;BME280;9627;59.236;18.142;2023-01-26T08:27:41;101301.31;;;3.77;100.00
18987;BME280;9627;59.236;18.142;2023-01-26T08:30:08;101304.91;;;3.76;100.00
18987;BME280;9627;59.236;18.142;2023-01-26T08:32:35;101311.16;;;3.75;100.00
18987;BME280;9627;59.236;18.142;2023-01-26T08:35:05;101316.41;;;3.75;100.00
18987;BME280;9627;59.236;18.142;2023-01-26T08:37:32;101319.53;;;3.69;100.00
18987;BME280;9627;59.236;18.142;2023-01-26T08:39:59;101313.69;;;3.66;100.00
18987;BME280;9627;59.236;18.142;2023-01-26T08:42:26;101319.16;;;3.63;100.00
18987;BME280;9627;59.236;18.142;2023-01-26T08:44:53;101331.59;;;3.61;100.00
18987;BME280;9627;59.236;18.142;2023-01-26T08:47:20;101324.56;;;3.61;100.00
18987;BME280;9627;59.236;18.142;2023-01-26T08:49:47;101324.81;;;3.58;100.00
18987;BME280;9627;59.236;18.142;2023-01-26T08:52:16;101327.81;;;3.54;100.00
18987;BME280;9627;59.236;18.142;2023-01-26T08:54:43;101335.31;;;3.58;100.00
18987;BME280;9627;59.236;18.142;2023-01-26T08:57:10;101333.75;;;3.56;100.00
18987;BME280;9627;59.236;18.142;2023-01-26T08:59:37;101341.28;;;3.49;100.00
18987;BME280;9627;59.236;18.142;2023-01-26T09:02:04;101352.06;;;3.46;100.00
18987;BME280;9627;59.236;18.142;2023-01-26T09:04:31;101364.59;;;3.43;100.00
18987;BME280;9627;59.236;18.142;2023-01-26T09:06:58;101361.97;;;3.43;100.00
18987;BME280;9627;59.236;18.142;2023-01-26T09:09:27;101362.78;;;3.43;100.00
18987;BME280;9627;59.236;18.142;2023-01-26T09:11:54;101370.19;;;3.38;100.00
18987;BME280;9627;59.236;18.142;2023-01-26T09:14:21;101367.00;;;3.35;100.00
18987;BME280;9627;59.236;18.142;2023-01-26T09:16:48;101365.91;;;3.37;100.00
18987;BME280;9627;59.236;18.142;2023-01-26T09:19:15;101371.06;;;3.28;100.00
18987;BME280;9627;59.236;18.142;2023-01-26T09:21:42;101371.16;;;3.26;100.00
18987;BME280;9627;59.236;18.142;2023-01-26T09:24:09;101368.78;;;3.23;100.00
18987;BME280;9627;59.236;18.142;2023-01-26T09:26:38;101376.53;;;3.25;100.00
18987;BME280;9627;59.236;18.142;2023-01-26T09:29:05;101377.88;;;3.19;100.00
18987;BME280;9627;59.236;18.142;2023-01-26T09:31:32;101370.72;;;3.21;100.00
18987;BME280;9627;59.236;18.142;2023-01-26T09:33:59;101383.94;;;3.20;100.00
18987;BME280;9627;59.236;18.142;2023-01-26T09:36:26;101387.03;;;3.25;100.00
18987;BME280;9627;59.236;18.142;2023-01-26T09:38:53;101391.69;;;3.21;100.00
18987;BME280;9627;59.236;18.142;2023-01-26T09:44:09;101408.00;;;3.36;100.00
18987;BME280;9627;59.236;18.142;2023-01-26T09:46:44;101410.53;;;3.26;100.00
18987;BME280;9627;59.236;18.142;2023-01-26T09:49:13;101402.88;;;3.34;100.00
18987;BME280;9627;59.236;18.142;2023-01-26T09:51:43;101406.00;;;3.28;100.00
18987;BME280;9627;59.236;18.142;2023-01-26T09:54:14;101407.91;;;3.26;100.00
18987;BME280;9627;59.236;18.142;2023-01-26T09:56:44;101420.81;;;3.29;100.00
18987;BME280;9627;59.236;18.142;2023-01-26T09:59:17;101422.69;;;3.38;100.00
18987;BME280;9627;59.236;18.142;2023-01-26T10:01:48;101411.00;;;3.42;100.00
18987;BME280;9627;59.236;18.142;2023-01-26T10:04:18;101418.47;;;3.69;100.00
18987;BME280;9627;59.236;18.142;2023-01-26T10:06:48;101420.13;;;3.70;100.00
18987;BME280;9627;59.236;18.142;2023-01-26T10:09:20;101434.25;;;3.58;100.00
18987;BME280;9627;59.236;18.142;2023-01-26T10:11:49;101429.59;;;3.50;100.00
18987;BME280;9627;59.236;18.142;2023-01-26T10:14:19;101434.00;;;3.50;100.00
18987;BME280;9627;59.236;18.142;2023-01-26T10:16:50;101442.34;;;3.66;100.00
18987;BME280;9627;59.236;18.142;2023-01-26T10:19:30;101453.91;;;3.74;100.00
18987;BME280;9627;59.236;18.142;2023-01-26T10:21:59;101459.38;;;3.83;100.00
18987;BME280;9627;59.236;18.142;2023-01-26T10:24:30;101456.03;;;3.81;100.00
18987;BME280;9627;59.236;18.142;2023-01-26T10:26:58;101465.94;;;4.20;100.00
18987;BME280;9627;59.236;18.142;2023-01-26T10:29:27;101473.56;;;4.96;100.00
18987;BME280;9627;59.236;18.142;2023-01-26T10:31:54;101474.84;;;5.31;100.00
18987;BME280;9627;59.236;18.142;2023-01-26T10:34:22;101480.25;;;5.09;100.00
18987;BME280;9627;59.236;18.142;2023-01-26T10:36:49;101485.94;;;5.05;100.00
18987;BME280;9627;59.236;18.142;2023-01-26T10:39:19;101493.63;;;4.97;100.00
18987;BME280;9627;59.236;18.142;2023-01-26T10:41:55;101504.22;;;5.36;100.00
18987;BME280;9627;59.236;18.142;2023-01-26T10:44:23;101510.34;;;5.37;100.00
18987;BME280;9627;59.236;18.142;2023-01-26T10:47:02;101504.50;;;5.33;100.00
18987;BME280;9627;59.236;18.142;2023-01-26T10:49:30;101514.41;;;5.20;100.00
18987;BME280;9627;59.236;18.142;2023-01-26T10:52:07;101516.28;;;5.09;100.00
18987;BME280;9627;59.236;18.142;2023-01-26T10:54:35;101523.34;;;5.08;100.00
18987;BME280;9627;59.236;18.142;2023-01-26T10:57:03;101528.06;;;5.35;100.00
18987;BME280;9627;59.236;18.142;2023-01-26T10:59:32;101530.97;;;5.32;100.00
18987;BME280;9627;59.236;18.142;2023-01-26T11:02:17;101543.84;;;5.35;100.00
18987;BME280;9627;59.236;18.142;2023-01-26T11:05:00;101535.00;;;5.15;100.00
18987;BME280;9627;59.236;18.142;2023-01-26T11:07:28;101527.06;;;4.85;100.00
18987;BME280;9627;59.236;18.142;2023-01-26T11:09:57;101528.47;;;4.68;100.00
18987;BME280;9627;59.236;18.142;2023-01-26T11:12:41;101542.25;;;4.61;100.00
18987;BME280;9627;59.236;18.142;2023-01-26T11:15:14;101545.44;;;4.44;100.00
18987;BME280;9627;59.236;18.142;2023-01-26T11:17:44;101552.38;;;4.34;100.00
18987;BME280;9627;59.236;18.142;2023-01-26T11:22:59;101551.88;;;4.71;100.00
18987;BME280;9627;59.236;18.142;2023-01-26T11:25:31;101554.13;;;4.55;100.00
18987;BME280;9627;59.236;18.142;2023-01-26T11:28:07;101563.25;;;4.40;100.00
18987;BME280;9627;59.236;18.142;2023-01-26T11:30:49;101551.41;;;4.46;100.00
18987;BME280;9627;59.236;18.142;2023-01-26T11:33:25;101560.50;;;4.42;100.00
18987;BME280;9627;59.236;18.142;2023-01-26T11:35:56;101569.09;;;4.33;100.00
18987;BME280;9627;59.236;18.142;2023-01-26T11:38:30;101569.28;;;4.09;100.00
18987;BME280;9627;59.236;18.142;2023-01-26T11:41:01;101578.13;;;4.19;100.00
18987;BME280;9627;59.236;18.142;2023-01-26T11:43:44;101579.75;;;4.31;100.00
18987;BME280;9627;59.236;18.142;2023-01-26T11:46:20;101577.72;;;4.24;100.00
18987;BME280;9627;59.236;18.142;2023-01-26T11:48:55;101581.78;;;4.28;100.00
18987;BME280;9627;59.236;18.142;2023-01-26T11:51:28;101583.75;;;4.46;100.00
18987;BME280;9627;59.236;18.142;2023-01-26T11:54:09;101588.53;;;4.52;100.00
18987;BME280;9627;59.236;18.142;2023-01-26T11:56:42;101590.34;;;4.41;100.00
18987;BME280;9627;59.236;18.142;2023-01-26T11:59:12;101597.75;;;4.47;100.00
18987;BME280;9627;59.236;18.142;2023-01-26T12:01:40;101587.38;;;4.45;100.00
18987;BME280;9627;59.236;18.142;2023-01-26T12:04:13;101589.34;;;4.64;100.00
18987;BME280;9627;59.236;18.142;2023-01-26T12:06:43;101598.41;;;4.28;100.00
18987;BME280;9627;59.236;18.142;2023-01-26T12:09:12;101585.09;;;4.41;100.00
18987;BME280;9627;59.236;18.142;2023-01-26T12:11:44;101599.22;;;4.40;100.00
18987;BME280;9627;59.236;18.142;2023-01-26T12:14:16;101588.94;;;4.37;100.00
18987;BME280;9627;59.236;18.142;2023-01-26T12:16:48;101597.34;;;4.31;100.00
18987;BME280;9627;59.236;18.142;2023-01-26T12:19:26;101603.72;;;4.49;100.00
18987;BME280;9627;59.236;18.142;2023-01-26T12:21:56;101609.25;;;4.35;100.00
18987;BME280;9627;59.236;18.142;2023-01-26T12:24:29;101609.53;;;3.99;100.00
18987;BME280;9627;59.236;18.142;2023-01-26T12:26:59;101609.09;;;3.83;100.00
18987;BME280;9627;59.236;18.142;2023-01-26T12:29:29;101619.72;;;3.81;100.00
18987;BME280;9627;59.236;18.142;2023-01-26T12:32:01;101615.59;;;3.44;100.00
18987;BME280;9627;59.236;18.142;2023-01-26T12:34:32;101617.16;;;3.35;100.00
18987;BME280;9627;59.236;18.142;2023-01-26T12:37:03;101620.72;;;3.34;100.00
18987;BME280;9627;59.236;18.142;2023-01-26T12:39:36;101624.66;;;3.29;100.00
18987;BME280;9627;59.236;18.142;2023-01-26T12:42:14;101623.06;;;3.15;100.00
18987;BME280;9627;59.236;18.142;2023-01-26T12:44:43;101626.66;;;3.14;100.00
18987;BME280;9627;59.236;18.142;2023-01-26T12:47:13;101635.03;;;2.96;100.00
18987;BME280;9627;59.236;18.142;2023-01-26T12:49:47;101636.84;;;2.95;100.00
18987;BME280;9627;59.236;18.142;2023-01-26T12:52:17;101637.03;;;2.92;100.00
18987;BME280;9627;59.236;18.142;2023-01-26T12:54:48;101640.38;;;2.94;100.00
18987;BME280;9627;59.236;18.142;2023-01-26T12:57:20;101642.84;;;2.84;100.00
18987;BME280;9627;59.236;18.142;2023-01-26T12:59:49;101630.81;;;2.82;100.00
18987;BME280;9627;59.236;18.142;2023-01-26T13:02:22;101632.19;;;2.75;100.00
18987;BME280;9627;59.236;18.142;2023-01-26T13:04:52;101645.75;;;2.69;100.00
18987;BME280;9627;59.236;18.142;2023-01-26T13:07:27;101659.53;;;2.60;100.00
18987;BME280;9627;59.236;18.142;2023-01-26T13:10:06;101661.09;;;2.62;100.00
18987;BME280;9627;59.236;18.142;2023-01-26T13:12:43;101665.94;;;2.56;100.00
18987;BME280;9627;59.236;18.142;2023-01-26T13:15:12;101672.47;;;2.50;100.00
18987;BME280;9627;59.236;18.142;2023-01-26T13:20:41;101671.63;;;2.50;100.00
18987;BME280;9627;59.236;18.142;2023-01-26T13:26:10;101692.31;;;2.42;100.00
18987;BME280;9627;59.236;18.142;2023-01-26T13:28:39;101697.25;;;2.34;100.00